Weather observations for the past three days for
Eagle Pass - Maverick County Memorial International Airport
Imperial (Metric)
Date Time (cdt) Wind (mph) Vis. (mi.) Weather Sky Cond. Temperature (ºF) Relative Humidity Wind Chill (°F) Heat Index (°F) Pressure Precipitation (in)
Air Dwpt 6 hour altimeter (in) sea level (mb) 1 hr 3 hr 6 hr
Max. Min.
10 03:15 SE 7 0.00 Fair CLR 75.2 68 78% 76 29.81 0.0
10 02:55 SE 8 0.00 Fair CLR 75.2 66.2 74% 77 29.81 0.0
10 02:35 SE 6 0.00 Fair CLR 75.2 66.2 74% 77 29.81 0.0
10 02:15 SE 6 0.00 Fair CLR 75.2 66.2 74% 77 29.81 0.0
10 01:55 SE 5 0.00 Fair CLR 77 66.2 69% 79 29.81 0.0
10 01:35 SE 6 0.00 Fair CLR 77 66.2 69% 79 29.81 0.0
10 01:15 SE 6 0.00 Fair CLR 77 66.2 69% 79 29.82 0.0
10 00:55 SE 7 0.00 Fair CLR 78.8 66.2 65% 81 29.81 0.0
10 00:35 SE 6 0.00 Fair CLR 78.8 64.4 61% 81 29.81 0.0
10 00:15 SE 6 0.00 Fair CLR 80.6 64.4 58% 82 29.81 0.0
09 23:55 SE 8 0.00 Fair CLR 80.6 64.4 58% 82 29.8 0.0
09 23:35 SE 9 0.00 Fair CLR 80.6 62.6 54% 82 29.8 0.0
09 23:15 SE 9 0.00 Fair CLR 82.4 62.6 51% 83 29.8 0.0
09 22:55 E 7 0.00 Fair CLR 82.4 62.6 51% 83 29.79 0.0
09 22:35 E 9 0.00 Fair CLR 82.4 62.6 51% 83 29.79 0.0
09 22:15 E 8 0.00 Fair CLR 82.4 62.6 51% 83 29.78 0.0
09 21:55 SE 7 0.00 Fair CLR 84.2 62.6 48% 85 29.77 0.0
09 21:35 SE 7 0.00 Fair CLR 84.2 62.6 48% 85 29.76 0.0
09 21:15 SE 7 0.00 Fair CLR 84.2 62.6 48% 85 29.75 0.0
09 20:55 E 7 0.00 Fair CLR 86 62.6 46% 87 29.74 0.0
09 20:35 SE 6 0.00 Fair CLR 87.8 62.6 43% 88 29.73 0.0
09 20:15 E 6 0.00 Fair CLR 89.6 62.6 41% 90 29.73 0.0
09 19:55 Calm 0.00 Fair CLR 91.4 62.6 38% 92 29.72 0.0
09 19:35 Calm 0.00 Fair CLR 93.2 62.6 36% 94 29.72 0.0
09 19:15 Vrbl 3 0.00 Fair CLR 93.2 62.6 36% 94 29.72 0.0
09 18:55 Calm 0.00 Fair CLR 93.2 62.6 36% 94 29.72 0.0
09 18:35 Calm 0.00 Fair CLR 93.2 62.6 36% 94 29.71 0.0
09 18:15 Calm 0.00 Fair CLR 95 62.6 34% 96 29.72 0.0
09 17:55 Calm 0.00 Fair CLR 95 64.4 36% 97 29.72 0.0
09 17:35 Vrbl 5 0.00 Fair CLR 95 62.6 34% 96 29.72 0.0
09 17:15 Calm 0.00 Fair CLR 93.2 62.6 36% 94 29.72 0.0
09 16:55 Calm 0.00 Fair CLR 93.2 62.6 36% 94 29.73 0.0
09 16:30 SE 8 0.00 A Few Clouds FEW065 95 64.4 36% 97 29.74 0.0
09 16:15 Vrbl 5 0.00 Fair CLR 93.2 66.2 41% 96 29.74 0.0
09 15:55 Calm 0.00 Fair CLR 91.4 66.2 44% 94 29.75 0.0
09 15:35 S 10 0.00 Fair CLR 93.2 66.2 41% 96 29.77 0.0
09 15:15 SW 8 0.00 Fair CLR 91.4 66.2 44% 94 29.77 0.0
09 14:55 S 10 0.00 Fair CLR 91.4 68 46% 96 29.78 0.0
09 14:35 S 9 0.00 Fair CLR 91.4 68 46% 96 29.79 0.0
09 14:15 Vrbl 6 G 14 0.00 A Few Clouds FEW045 89.6 69.8 52% 95 29.8 0.0
09 13:55 S 10 G 16 0.00 A Few Clouds FEW042 89.6 69.8 52% 95 29.81 0.0
09 13:35 Vrbl 6 G 17 0.00 Fair CLR 89.6 69.8 52% 95 29.82 0.0
09 13:15 Vrbl 7 0.00 Fair CLR 87.8 69.8 55% 93 29.83 0.0
09 12:55 Vrbl 6 G 13 0.00 A Few Clouds FEW029 FEW037 86 71.6 62% 92 29.84 0.0
09 12:35 S 6 G 13 0.00 A Few Clouds FEW029 86 73.4 66% 93 29.85 0.0
09 12:15 Calm 0.00 A Few Clouds FEW024 FEW032 84.2 73.4 70% 91 29.86 0.0
09 11:50 S 5 0.00 Partly Cloudy SCT021 SCT026 82.4 75.2 79% 89 29.87 0.0
09 11:35 Calm 0.00 A Few Clouds FEW017 82.4 75.2 79% 89 29.87 0.0
09 11:15 Vrbl 5 0.00 Mostly Cloudy BKN015 80.6 75.2 84% 86 29.87 0.0
09 10:55 S 9 0.00 Mostly Cloudy BKN014 80.6 75.2 84% 86 29.87 0.0
09 10:35 E 6 0.00 NULL NULL 78.8 77 94% 83 29.87 0.0
09 10:15 E 5 0.00 NULL NULL 77 77 100% 78 29.87 0.0
09 09:55 NE 7 0.00 NULL NULL 75.2 75.2 100% 73 29.88 0.0
09 09:35 NE 6 0.00 Mostly Cloudy BKN004 73.4 73.4 100% 29.88 0.0
09 08:55 NE 5 0.00 Overcast OVC003 71.6 71.6 100% 29.87 0.0
09 08:35 NE 8 0.00 Overcast OVC002 71.6 71.6 100% 29.87 0.0
09 08:15 NE 6 0.00 Overcast OVC003 71.6 71.6 100% 29.86 0.0
09 07:55 E 5 0.00 Overcast OVC002 71.6 71.6 100% 29.85 0.0
09 07:35 E 8 0.00 Overcast OVC003 71.6 71.6 100% 29.84 0.0
09 07:15 E 5 0.00 Overcast OVC003 71.6 71.6 100% 29.82 0.0
09 06:55 E 8 0.00 Overcast OVC003 71.6 71.6 100% 29.82 0.0
09 06:35 E 6 0.00 Overcast OVC004 69.8 69.8 100% 29.81 0.0
09 06:15 E 8 0.00 Mostly Cloudy BKN004 69.8 69.8 100% 29.8 0.0
09 05:55 E 5 0.00 NULL NULL 68 68 100% 29.8 0.0
09 05:35 E 6 0.00 NULL NULL 68 68 100% 29.79 0.0
09 05:15 Calm 0.00 NULL NULL 69.8 69.8 100% 29.79 0.0
09 04:55 NW 3 0.00 NULL NULL 69.8 69.8 100% 29.78 0.0
09 04:35 Calm 0.00 NULL NULL 69.8 69.8 100% 29.78 0.0
09 04:15 NE 5 0.00 NULL NULL 69.8 69.8 100% 29.77 0.0
09 03:55 NE 6 0.00 NULL NULL 69.8 69.8 100% 29.78 0.0
09 03:35 N 6 0.00 NULL NULL 69.8 69.8 100% 29.78 0.0
09 03:15 NE 6 0.00 NULL NULL 69.8 69.8 100% 29.79 0.0
09 02:55 N 5 0.00 Mostly Cloudy BKN026 69.8 69.8 100% 29.8 0.0
09 02:35 E 5 0.00 NULL NULL 71.6 71.6 100% 29.8 0.0
09 02:15 E 6 0.00 NULL NULL 71.6 71.6 100% 29.8 0.0
09 01:55 NE 3 0.00 NULL NULL 71.6 71.6 100% 29.8 0.0
09 01:35 E 5 0.00 NULL NULL 73.4 71.6 94% 29.8 0.0
09 01:15 E 7 0.00 NULL NULL 73.4 71.6 94% 29.81 0.0
09 00:55 SE 7 0.00 NULL NULL 73.4 71.6 94% 29.82 0.0
09 00:35 E 7 0.00 NULL NULL 73.4 71.6 94% 29.82 0.0
09 00:15 NE 7 0.00 NULL NULL 73.4 71.6 94% 29.81 0.0
08 23:55 N 8 0.00 NULL NULL 73.4 71.6 94% 29.82 0.0
08 23:35 E 9 0.00 Fair CLR 75.2 71.6 89% 75 29.81 0.0
08 23:15 E 8 0.00 Partly Cloudy SCT039 75.2 69.8 83% 75 29.81 0.0
08 22:55 E 5 0.00 Overcast OVC039 75.2 69.8 83% 75 29.83 0.0
08 22:35 NE 5 0.00 Overcast OVC040 73.4 69.8 89% 29.82 0.0
08 22:15 N 5 0.00 Overcast OVC038 73.4 69.8 89% 29.8 0.0
08 21:55 N 5 0.00 Mostly Cloudy BKN036 73.4 69.8 89% 29.78 0.0
08 21:35 N 5 0.00 A Few Clouds FEW038 73.4 68 83% 29.77 0.0
08 21:15 NE 5 0.00 Fair CLR 75.2 69.8 83% 75 29.75 0.0
08 20:55 NE 5 0.00 Fair CLR 75.2 69.8 83% 75 29.75 0.0
08 20:35 NE 5 0.00 Fair CLR 77 69.8 79% 79 29.73 0.0
08 20:15 NE 6 0.00 Fair CLR 78.8 69.8 74% 81 29.73 0.0
08 19:50 E 6 0.00 Fair CLR 78.8 68 70% 81 29.73 0.0
08 19:35 E 8 0.00 Fair CLR 80.6 68 66% 83 29.73 0.0
08 19:15 E 8 0.00 A Few Clouds FEW032 80.6 68 66% 83 29.73 0.0
08 18:55 Vrbl 8 0.00 A Few Clouds FEW033 80.6 68 66% 83 29.74 0.0
08 18:35 SE 9 0.00 Mostly Cloudy BKN033 82.4 68 62% 85 29.73 0.0
08 18:15 SE 8 0.00 Partly Cloudy SCT033 SCT039 82.4 68 62% 85 29.74 0.0
08 17:55 E 9 G 15 0.00 Partly Cloudy SCT033 82.4 68 62% 85 29.72 0.0
08 17:35 E 7 G 15 0.00 Partly Cloudy SCT033 80.6 68 66% 83 29.73 0.0
08 17:15 E 9 G 15 0.00 Partly Cloudy SCT033 80.6 68 66% 83 29.73 0.0
08 16:55 SE 9 0.00 Partly Cloudy SCT032 80.6 68 66% 83 29.74 0.0
08 16:35 SE 7 G 14 0.00 A Few Clouds FEW032 80.6 68 66% 83 29.74 0.0
08 16:15 SE 6 G 14 0.00 Partly Cloudy SCT032 82.4 68 62% 85 29.76 0.0
08 15:55 SE 6 G 14 0.00 Mostly Cloudy BKN032 80.6 68 66% 83 29.76 0.0
08 15:35 Vrbl 6 G 12 0.00 Partly Cloudy SCT031 80.6 68 66% 83 29.77 0.0
08 15:15 SE 9 G 17 0.00 Partly Cloudy SCT029 80.6 68 66% 83 29.78 0.0
08 14:55 Vrbl 5 G 13 0.00 Overcast OVC028 78.8 68 70% 81 29.78 0.0
08 14:35 SE 5 0.00 Overcast OVC028 77 68 74% 79 29.79 0.0
08 14:15 S 7 0.00 Overcast OVC027 78.8 68 70% 81 29.8 0.0
08 13:55 E 8 0.00 Overcast OVC027 77 66.2 69% 79 29.8 0.0
08 13:35 Vrbl 5 G 13 0.00 Overcast OVC027 77 66.2 69% 79 29.82 0.0
08 13:15 Vrbl 6 0.00 Overcast BKN023 OVC029 77 66.2 69% 79 29.82 0.0
08 12:55 SE 3 0.00 Overcast OVC023 75.2 66.2 74% 77 29.84 0.0
08 12:35 SE 3 0.00 Overcast OVC023 75.2 66.2 74% 77 29.84 0.0
08 12:15 E 8 0.00 Overcast OVC022 73.4 66.2 78% 29.85 0.0
08 11:55 E 6 0.00 Overcast SCT017 OVC024 73.4 66.2 78% 29.86 0.0
08 11:35 SE 6 0.00 Overcast BKN015 OVC024 71.6 66.2 83% 29.87 0.0
08 11:15 SE 7 0.00 Overcast OVC014 71.6 66.2 83% 29.88 0.0
08 10:55 E 9 0.00 Overcast OVC013 69.8 64.4 83% 29.88 0.0
08 10:35 E 9 0.00 Overcast OVC013 69.8 64.4 83% 29.89 0.0
08 10:15 E 12 0.00 Overcast OVC015 68 64.4 88% 29.9 0.0
08 09:55 E 10 0.00 Overcast OVC015 68 64.4 88% 29.89 0.0
08 09:35 E 7 0.00 Overcast OVC015 68 64.4 88% 29.9 0.0
08 09:15 E 9 0.00 Overcast BKN016 OVC027 68 64.4 88% 29.9 0.0
08 08:55 E 9 0.00 Overcast OVC017 68 64.4 88% 29.9 0.0
08 08:35 E 6 G 12 0.00 Overcast OVC017 66.2 66.2 100% 29.9 0.0
08 08:15 NE 8 0.00 Overcast OVC019 66.2 66.2 100% 29.9 0.0
08 07:55 E 9 0.00 Overcast OVC019 66.2 66.2 100% 29.9 0.0
08 07:35 E 12 0.00 Overcast OVC019 66.2 64.4 94% 29.9 0.0
08 07:15 E 9 0.00 Overcast OVC019 66.2 64.4 94% 29.9 0.0
08 06:55 E 6 0.00 Overcast OVC019 66.2 64.4 94% 29.89 0.0
08 06:35 N 3 0.00 Overcast OVC018 66.2 64.4 94% 29.88 0.0
08 06:15 NE 6 0.00 Overcast OVC019 66.2 64.4 94% 29.87 0.0
08 05:55 Calm 0.00 Overcast OVC021 66.2 64.4 94% 29.89 0.0
08 05:35 Calm 0.00 Overcast OVC020 66.2 64.4 94% 29.89 0.0
08 05:15 Calm 0.00 Overcast OVC020 66.2 64.4 94% 29.89 0.0
08 04:55 Calm 0.00 Overcast OVC021 66.2 64.4 94% 29.89 0.0
08 04:35 Calm 0.00 Overcast OVC020 66.2 64.4 94% 29.89 0.0
08 04:15 Calm 0.00 Overcast OVC020 66.2 64.4 94% 29.89 0.0
08 03:55 Calm 0.00 Overcast OVC020 66.2 64.4 94% 29.9 0.0
08 03:35 NW 3 0.00 Overcast OVC018 66.2 64.4 94% 29.89 0.0
08 03:15 Calm 0.00 Overcast OVC018 66.2 64.4 94% 29.91 0.0
08 02:55 Calm 0.00 Overcast OVC019 66.2 64.4 94% 29.92 0.0
08 02:35 Calm 0.00 Overcast OVC018 64.4 64.4 100% 29.91 0.0
08 02:15 Calm 0.00 Overcast OVC019 64.4 64.4 100% 29.93 0.0
08 01:55 N 3 0.00 Overcast OVC020 64.4 64.4 100% 29.93 0.0
08 01:35 Calm 0.00 Overcast OVC019 64.4 64.4 100% 29.94 0.0
08 01:15 Calm 0.00 Overcast OVC020 64.4 64.4 100% 29.94 0.0
08 00:55 NW 5 0.00 Overcast OVC021 64.4 64.4 100% 29.94 0.0
08 00:35 NW 6 0.00 Overcast OVC022 66.2 64.4 94% 29.94 0.0
08 00:15 NW 6 0.00 Overcast OVC022 66.2 64.4 94% 29.94 0.0
07 23:55 W 5 0.00 Overcast OVC022 66.2 62.6 88% 29.95 0.0
07 23:35 Calm 0.00 Overcast OVC021 66.2 62.6 88% 29.95 0.0
07 23:15 Calm 0.00 Overcast OVC022 66.2 62.6 88% 29.95 0.0
07 22:55 E 7 0.00 Overcast OVC021 66.2 62.6 88% 29.93 0.0
07 22:35 Calm 0.00 Overcast OVC022 66.2 62.6 88% 29.96 0.0
07 22:15 N 3 0.00 Overcast OVC021 66.2 62.6 88% 29.95 0.0
07 21:55 N 5 0.00 Overcast OVC022 66.2 62.6 88% 29.94 0.0
07 21:35 N 5 0.00 Overcast OVC022 66.2 62.6 88% 29.94 0.0
07 21:15 N 6 0.00 Overcast OVC023 64.4 62.6 94% 29.94 0.0
07 20:55 N 7 0.00 Overcast OVC022 64.4 62.6 94% 29.94 0.0
07 20:35 N 8 0.00 NULL NULL 64.4 62.6 94% 29.92 0.0
07 20:15 N 9 0.00 NULL NULL 66.2 64.4 94% 29.92 0.0
07 19:55 N 5 0.00 Overcast BKN013 OVC019 66.2 64.4 94% 29.94 0.0
07 19:35 W 5 0.00 Overcast BKN013 OVC018 66.2 66.2 100% 29.95 0.0
07 19:15 NW 6 0.00 Overcast OVC017 66.2 64.4 94% 29.94 0.0
07 18:55 N 6 G 12 0.00 Overcast OVC017 66.2 64.4 94% 29.93 0.0
07 18:35 NW 8 0.00 Overcast OVC017 66.2 64.4 94% 29.92 0.0
07 18:15 N 8 0.00 Overcast OVC016 66.2 64.4 94% 29.91 0.0
07 17:55 NW 6 0.00 Overcast OVC016 66.2 64.4 94% 29.93 0.0
07 17:35 NW 7 0.00 Overcast OVC014 66.2 64.4 94% 29.92 0.0
07 17:15 NW 5 0.00 Mostly Cloudy BKN013 64.4 64.4 100% 29.94 0.0
07 16:55 N 7 0.00 NULL NULL 64.4 64.4 100% 29.95 0.0
07 16:30 NE 8 0.00 NULL NULL 64.4 64.4 100% 29.95 0.0
07 16:15 NE 7 0.00 Overcast OVC013 66.2 64.4 94% 29.96 0.0
07 15:55 NE 7 0.00 Overcast OVC013 66.2 64.4 94% 29.97 0.0
07 15:35 NE 8 0.00 Mostly Cloudy BKN013 66.2 64.4 94% 29.97 0.0
07 15:15 NE 7 0.00 Mostly Cloudy BKN013 66.2 64.4 94% 29.98 0.0
07 14:55 NE 8 0.00 Overcast OVC013 66.2 64.4 94% 29.99 0.0
07 14:35 NE 6 0.00 Overcast OVC013 66.2 64.4 94% 30 0.0
07 14:15 N 8 0.00 Overcast OVC013 66.2 64.4 94% 30 0.0
07 13:55 E 7 0.00 Overcast OVC013 66.2 64.4 94% 29.98 0.0
07 13:35 NE 10 G 17 0.00 Mostly Cloudy BKN014 66.2 66.2 100% 29.98 0.0
07 13:15 NE 8 0.00 Mostly Cloudy BKN013 66.2 66.2 100% 30 0.0
07 12:55 E 8 0.00 Overcast OVC013 66.2 66.2 100% 29.99 0.0
07 12:35 E 9 0.00 Overcast OVC014 66.2 66.2 100% 30 0.0
07 12:15 E 10 0.00 Overcast OVC013 68 64.4 88% 30.01 0.0
07 11:55 E 13 G 20 0.00 Overcast OVC014 68 64.4 88% 29.98 0.0
07 11:35 NE 9 0.00 Overcast OVC014 68 64.4 88% 30 0.0
07 11:15 NE 7 0.00 Overcast OVC015 68 64.4 88% 30 0.0
07 10:55 E 9 0.00 Overcast OVC015 68 64.4 88% 29.99 0.0
07 10:35 E 12 G 20 0.00 Overcast OVC014 68 64.4 88% 29.96 0.0
07 10:15 E 10 0.00 Overcast OVC016 68 64.4 88% 29.97 0.0
07 09:55 E 9 0.00 Overcast OVC016 68 64.4 88% 29.98 0.0
07 09:35 E 8 0.00 Overcast OVC015 68 64.4 88% 29.97 0.0
07 09:15 E 7 0.00 Overcast OVC015 68 64.4 88% 29.97 0.0
07 08:55 E 7 G 14 0.00 Overcast OVC015 68 64.4 88% 29.97 0.0
07 08:35 E 9 0.00 Overcast OVC015 68 64.4 88% 29.95 0.0
07 08:15 E 13 0.00 Overcast OVC015 68 64.4 88% 29.95 0.0
07 07:55 NE 8 0.00 Overcast OVC014 68 64.4 88% 29.95 0.0
07 07:35 NE 7 0.00 Overcast OVC016 68 64.4 88% 29.94 0.0
07 07:15 NW 7 0.00 Overcast BKN014 OVC018 68 64.4 88% 29.94 0.0
07 06:55 E 10 G 17 0.00 Overcast OVC012 68 62.6 83% 29.9 0.0
07 06:35 E 8 0.00 Overcast OVC014 69.8 62.6 78% 29.92 0.0
07 06:15 E 5 0.00 Overcast OVC014 69.8 62.6 78% 29.93 0.0
07 05:50 E 9 0.00 Overcast OVC015 69.8 62.6 78% 29.9 0.0
07 05:35 E 9 0.00 Overcast OVC015 69.8 62.6 78% 29.91 0.0
07 05:15 E 5 0.00 Overcast OVC015 69.8 64.4 83% 29.91 0.0
07 04:55 E 6 0.00 Overcast OVC015 69.8 64.4 83% 29.91 0.0
07 04:35 E 10 0.00 Overcast OVC015 69.8 62.6 78% 29.91 0.0
07 04:15 E 8 G 15 0.00 Overcast OVC014 69.8 64.4 83% 29.91 0.0
07 03:55 E 10 0.00 Overcast OVC015 69.8 64.4 83% 29.89 0.0
07 03:35 E 9 0.00 Overcast OVC015 69.8 64.4 83% 29.89 0.0
Date Time (cdt) Wind (mph) Vis. (mi.) Weather Sky Cond. Air Dwpt Max. Min. Relative Humidity Wind Chill (°F) Heat Index (°F) altimeter (in) sea level (mb) 1 hr 3 hr 6 hr
6 hour
Temperature (ºF) Pressure Precipitation (in)